createdAt,value
2019-05-02T00:01:58.875Z,55.00
2019-05-02T00:04:27.235Z,55.00
2019-05-02T00:07:06.037Z,55.00
2019-05-02T00:09:34.655Z,55.00
2019-05-02T00:12:03.213Z,54.90
2019-05-02T00:14:31.911Z,54.90
2019-05-02T00:17:00.198Z,54.90
2019-05-02T00:19:28.564Z,54.90
2019-05-02T00:21:56.974Z,54.90
2019-05-02T00:24:25.259Z,54.90
2019-05-02T00:26:56.111Z,55.00
2019-05-02T00:29:24.899Z,54.90
2019-05-02T00:31:53.328Z,54.90
2019-05-02T00:34:21.601Z,54.80
2019-05-02T00:36:49.895Z,54.80
2019-05-02T00:39:18.171Z,54.80
2019-05-02T00:41:46.472Z,54.80
2019-05-02T00:44:14.819Z,54.70
2019-05-02T00:46:43.192Z,54.70
2019-05-02T00:49:11.539Z,54.70
2019-05-02T00:51:39.830Z,54.70
2019-05-02T00:54:08.106Z,54.60
2019-05-02T00:56:40.215Z,54.60
2019-05-02T00:59:07.614Z,54.60
2019-05-02T01:01:38.075Z,54.60
2019-05-02T01:04:07.986Z,54.50
2019-05-02T01:06:36.278Z,54.50
2019-05-02T01:09:10.991Z,54.50
2019-05-02T01:11:36.714Z,54.50
2019-05-02T01:14:05.066Z,54.50
2019-05-02T01:16:33.362Z,54.50
2019-05-02T01:19:01.642Z,54.50
2019-05-02T01:21:34.133Z,54.50
2019-05-02T01:24:02.983Z,54.50
2019-05-02T01:26:31.680Z,54.40
2019-05-02T01:29:04.360Z,54.40
2019-05-02T01:31:54.717Z,54.40
2019-05-02T01:34:24.389Z,54.40
2019-05-02T01:36:54.403Z,54.40
2019-05-02T01:39:22.785Z,54.40
2019-05-02T01:41:51.130Z,54.40
2019-05-02T01:44:19.430Z,54.40
2019-05-02T01:46:47.705Z,54.40
2019-05-02T01:49:16.941Z,54.30
2019-05-02T01:51:47.752Z,54.30
2019-05-02T01:54:15.995Z,54.30
2019-05-02T01:56:44.497Z,54.30
2019-05-02T01:59:12.796Z,54.30
2019-05-02T02:01:41.146Z,54.30
2019-05-02T02:04:09.432Z,54.30
2019-05-02T02:06:38.906Z,54.30
2019-05-02T02:09:09.636Z,54.30
2019-05-02T02:11:38.170Z,54.30
2019-05-02T02:14:07.244Z,54.30
2019-05-02T02:16:39.227Z,54.20
2019-05-02T02:19:25.261Z,54.20
2019-05-02T02:22:02.812Z,54.20
2019-05-02T02:24:32.262Z,54.30
2019-05-02T02:27:00.544Z,54.20
2019-05-02T02:29:28.839Z,54.20
2019-05-02T02:31:57.114Z,54.20
2019-05-02T02:34:29.400Z,54.20
2019-05-02T02:36:55.501Z,54.20
2019-05-02T02:39:23.878Z,54.20
2019-05-02T02:41:54.087Z,54.20
2019-05-02T02:44:39.939Z,54.30
2019-05-02T02:47:12.273Z,54.20
2019-05-02T02:49:36.083Z,54.20
2019-05-02T02:52:06.615Z,54.20
2019-05-02T02:54:36.804Z,54.20
2019-05-02T02:57:04.456Z,54.20
2019-05-02T02:59:32.725Z,54.20
2019-05-02T03:02:09.146Z,54.20
2019-05-02T03:04:31.046Z,54.20
2019-05-02T03:06:59.343Z,54.10
2019-05-02T03:09:29.065Z,54.10
2019-05-02T03:12:15.434Z,54.20
2019-05-02T03:14:47.262Z,54.10
2019-05-02T03:17:20.448Z,54.10
2019-05-02T03:19:45.375Z,54.10
2019-05-02T03:22:13.739Z,54.10
2019-05-02T03:24:44.242Z,54.10
2019-05-02T03:27:12.035Z,54.10
2019-05-02T03:29:44.149Z,54.10
2019-05-02T03:32:22.154Z,54.10
2019-05-02T03:34:52.990Z,54.10
2019-05-02T03:37:13.739Z,54.10
2019-05-02T03:39:40.616Z,54.10
2019-05-02T03:42:08.917Z,54.10
2019-05-02T03:44:37.196Z,54.00
2019-05-02T03:47:05.498Z,54.10
2019-05-02T03:49:33.845Z,54.10
2019-05-02T03:52:05.382Z,54.00
2019-05-02T03:54:32.132Z,54.10
2019-05-02T03:57:00.419Z,54.00
2019-05-02T03:59:37.646Z,54.00
2019-05-02T04:01:58.978Z,54.00
2019-05-02T04:04:27.313Z,54.00
2019-05-02T04:07:00.967Z,54.00
2019-05-02T04:09:32.040Z,54.00
2019-05-02T04:11:58.883Z,54.10
2019-05-02T04:14:37.180Z,54.00
2019-05-02T04:16:58.713Z,54.50
2019-05-02T04:19:34.699Z,54.00
2019-05-02T04:22:01.471Z,54.00
2019-05-02T04:24:27.564Z,54.10
2019-05-02T04:26:56.381Z,54.10
2019-05-02T04:29:31.019Z,54.10
2019-05-02T04:31:54.814Z,54.20
2019-05-02T04:34:23.204Z,54.30
2019-05-02T04:37:00.783Z,54.30
2019-05-02T04:39:22.652Z,54.40
2019-05-02T04:41:51.001Z,54.60
2019-05-02T04:44:19.393Z,54.70
2019-05-02T04:46:48.904Z,54.90
2019-05-02T04:49:20.045Z,54.90
2019-05-02T04:51:59.420Z,55.10
2019-05-02T04:54:25.729Z,55.10
2019-05-02T04:56:52.348Z,55.20
2019-05-02T04:59:21.880Z,55.30
2019-05-02T05:01:54.696Z,55.40
2019-05-02T05:04:18.015Z,55.50
2019-05-02T05:06:55.433Z,55.60
2019-05-02T05:09:18.034Z,55.80
2019-05-02T05:11:48.205Z,56.00
2019-05-02T05:14:17.959Z,56.00
2019-05-02T05:16:53.243Z,56.30
2019-05-02T05:19:17.842Z,56.50
2019-05-02T05:21:47.672Z,56.70
2019-05-02T05:24:18.294Z,57.00
2019-05-02T05:26:48.309Z,57.30
2019-05-02T05:29:19.361Z,57.50
2019-05-02T05:31:48.267Z,57.80
2019-05-02T05:34:17.379Z,57.90
2019-05-02T05:36:47.785Z,58.10
2019-05-02T05:39:17.659Z,58.30
2019-05-02T05:41:50.532Z,58.40
2019-05-02T05:44:17.957Z,58.60
2019-05-02T05:46:48.892Z,58.80
2019-05-02T05:49:18.329Z,58.90
2019-05-02T05:51:47.488Z,59.00
2019-05-02T05:54:17.735Z,59.00
2019-05-02T05:56:48.012Z,59.00
2019-05-02T05:59:17.497Z,59.10
2019-05-02T06:01:47.965Z,59.10
2019-05-02T06:04:22.095Z,59.70
2019-05-02T06:06:47.858Z,59.20
2019-05-02T06:09:16.176Z,59.10
2019-05-02T06:11:44.472Z,59.20
2019-05-02T06:14:12.748Z,59.20
2019-05-02T06:16:41.046Z,59.20
2019-05-02T06:19:12.959Z,58.70
2019-05-02T06:21:39.991Z,59.20
2019-05-02T06:24:11.017Z,59.20
2019-05-02T06:26:39.334Z,59.30
2019-05-02T06:29:07.627Z,59.20
2019-05-02T06:31:38.249Z,59.10
2019-05-02T06:34:07.074Z,59.60
2019-05-02T06:36:36.817Z,59.10
2019-05-02T06:39:06.025Z,59.20
2019-05-02T06:41:34.369Z,59.20
2019-05-02T06:44:02.671Z,59.20
2019-05-02T06:46:31.095Z,59.20
2019-05-02T06:48:59.386Z,59.20
2019-05-02T06:51:27.656Z,59.30
2019-05-02T06:53:55.950Z,59.40
2019-05-02T06:56:24.227Z,59.60
2019-05-02T06:58:52.516Z,59.60
2019-05-02T07:01:21.615Z,59.70
2019-05-02T07:03:50.882Z,59.90
2019-05-02T07:06:19.325Z,59.90
2019-05-02T07:08:47.959Z,60.10
2019-05-02T07:11:16.252Z,60.20
2019-05-02T07:13:44.548Z,60.20
2019-05-02T07:16:15.569Z,60.20
2019-05-02T07:18:47.482Z,60.20
2019-05-02T07:21:17.862Z,60.20
2019-05-02T07:23:48.586Z,60.20
2019-05-02T07:26:21.270Z,60.20
2019-05-02T07:28:47.506Z,60.20
2019-05-02T07:31:16.056Z,60.20
2019-05-02T07:33:44.334Z,60.20
2019-05-02T07:36:12.626Z,60.30
2019-05-02T07:38:40.992Z,60.20
2019-05-02T07:41:09.298Z,60.30
2019-05-02T07:43:37.584Z,60.30
2019-05-02T07:46:05.879Z,60.40
2019-05-02T07:48:34.234Z,60.30
2019-05-02T07:51:02.531Z,60.40
2019-05-02T07:53:30.814Z,60.40
2019-05-02T07:55:59.179Z,60.50
2019-05-02T07:58:27.544Z,60.50
2019-05-02T08:00:55.906Z,60.60
2019-05-02T08:03:24.191Z,60.80
2019-05-02T08:05:54.365Z,60.80
2019-05-02T08:08:25.129Z,61.10
2019-05-02T08:10:53.841Z,61.40
2019-05-02T08:13:22.506Z,61.50
2019-05-02T08:15:52.325Z,61.70
2019-05-02T08:18:25.235Z,61.90
2019-05-02T08:20:51.015Z,62.80
2019-05-02T08:23:26.103Z,62.00
2019-05-02T08:25:50.802Z,62.00
2019-05-02T08:28:23.500Z,62.00
2019-05-02T08:30:55.975Z,62.00
2019-05-02T08:33:29.120Z,62.10
2019-05-02T08:35:54.383Z,62.60
2019-05-02T08:38:22.883Z,63.40
2019-05-02T08:40:51.250Z,63.40
2019-05-02T08:43:19.606Z,63.90
2019-05-02T08:45:48.286Z,64.80
2019-05-02T08:48:16.664Z,66.20
2019-05-02T08:50:45.222Z,67.40
2019-05-02T08:53:14.241Z,68.70
2019-05-02T08:55:45.363Z,69.60
2019-05-02T08:58:14.624Z,70.40
2019-05-02T09:00:43.548Z,70.80
2019-05-02T09:03:11.846Z,71.70
2019-05-02T09:05:45.478Z,71.90
2019-05-02T09:08:14.268Z,71.80
2019-05-02T09:10:42.180Z,71.90
2019-05-02T09:13:10.141Z,72.10
2019-05-02T09:15:40.316Z,72.90
2019-05-02T09:18:08.436Z,73.50
2019-05-02T09:20:36.721Z,73.80
2019-05-02T09:23:05.083Z,74.00
2019-05-02T09:25:33.434Z,74.00
2019-05-02T09:28:01.967Z,73.50
2019-05-02T09:30:32.319Z,72.90
2019-05-02T09:33:02.836Z,72.50
2019-05-02T09:35:30.407Z,72.20
2019-05-02T09:37:58.715Z,72.00
2019-05-02T09:40:27.069Z,71.90
2019-05-02T09:43:00.013Z,71.80
2019-05-02T09:45:27.880Z,71.60
2019-05-02T09:48:04.568Z,71.40
2019-05-02T09:50:31.455Z,71.10
2019-05-02T09:52:57.286Z,70.90
2019-05-02T09:55:25.577Z,70.70
2019-05-02T09:57:53.922Z,70.70
2019-05-02T10:00:42.676Z,70.40
2019-05-02T10:03:12.074Z,71.00
2019-05-02T10:05:42.760Z,70.00
2019-05-02T10:08:13.502Z,69.70
2019-05-02T10:10:44.339Z,69.70
2019-05-02T10:13:12.215Z,69.50
2019-05-02T10:15:42.115Z,69.40
2019-05-02T10:18:13.700Z,69.10
2019-05-02T10:20:41.956Z,68.90
2019-05-02T10:23:11.994Z,69.00
2019-05-02T10:25:46.472Z,68.80
2019-05-02T10:28:12.803Z,68.60
2019-05-02T10:30:42.467Z,68.50
2019-05-02T10:33:12.176Z,68.40
2019-05-02T10:35:52.526Z,68.20
2019-05-02T10:38:22.552Z,68.10
2019-05-02T10:40:56.523Z,67.90
2019-05-02T10:43:22.216Z,68.00
2019-05-02T10:45:56.467Z,67.90
2019-05-02T10:48:28.454Z,67.70
2019-05-02T10:50:56.699Z,67.60
2019-05-02T10:53:25.089Z,67.50
2019-05-02T10:55:53.441Z,67.40
2019-05-02T10:58:26.205Z,68.00
2019-05-02T11:00:52.338Z,67.20
2019-05-02T11:03:22.643Z,67.10
2019-05-02T11:05:52.995Z,66.90
2019-05-02T11:08:22.487Z,66.80
2019-05-02T11:10:52.620Z,66.70
2019-05-02T11:13:25.710Z,66.70
2019-05-02T11:16:12.552Z,66.50
2019-05-02T11:18:59.099Z,66.40
2019-05-02T11:21:27.450Z,66.30
2019-05-02T11:23:55.850Z,66.20
2019-05-02T11:26:25.263Z,66.20
2019-05-02T11:28:53.940Z,66.10
2019-05-02T11:31:22.234Z,66.10
2019-05-02T11:33:52.733Z,66.00
2019-05-02T11:36:22.352Z,65.90
2019-05-02T11:38:58.323Z,65.80
2019-05-02T11:41:22.471Z,65.70
2019-05-02T11:43:54.067Z,65.70
2019-05-02T11:46:22.066Z,65.60
2019-05-02T11:48:56.369Z,65.60
2019-05-02T11:51:22.748Z,65.50
2019-05-02T11:53:52.723Z,65.20
2019-05-02T11:56:22.286Z,65.20
2019-05-02T11:58:52.800Z,65.10
2019-05-02T12:01:34.995Z,65.00
2019-05-02T12:03:54.024Z,65.00
2019-05-02T12:06:22.726Z,65.00
2019-05-02T12:08:52.632Z,65.00
2019-05-02T12:11:22.866Z,65.00
2019-05-02T12:13:54.920Z,65.00
2019-05-02T12:16:22.936Z,65.00
2019-05-02T12:18:53.563Z,65.00
2019-05-02T12:21:22.916Z,65.00
2019-05-02T12:23:52.665Z,64.90
2019-05-02T12:26:22.188Z,64.90
2019-05-02T12:28:52.465Z,64.80
2019-05-02T12:31:27.953Z,64.80
2019-05-02T12:33:56.634Z,64.80
2019-05-02T12:36:24.919Z,64.80
2019-05-02T12:38:53.286Z,64.80
2019-05-02T12:41:24.584Z,64.90
2019-05-02T12:43:52.473Z,64.80
2019-05-02T12:46:22.225Z,64.90
2019-05-02T12:48:52.033Z,64.90
2019-05-02T12:51:22.344Z,64.80
2019-05-02T12:53:52.582Z,64.90
2019-05-02T12:56:22.696Z,64.90
2019-05-02T12:58:52.725Z,64.90
2019-05-02T13:01:21.840Z,64.80
2019-05-02T13:04:02.765Z,64.80
2019-05-02T13:06:32.814Z,64.80
2019-05-02T13:09:03.173Z,64.70
2019-05-02T13:11:36.786Z,64.70
2019-05-02T13:14:03.980Z,64.70
2019-05-02T13:16:33.540Z,64.70
2019-05-02T13:19:06.085Z,64.70
2019-05-02T13:21:42.512Z,64.70
2019-05-02T13:24:16.419Z,64.80
2019-05-02T13:26:44.088Z,64.70
2019-05-02T13:29:12.393Z,64.70
2019-05-02T13:31:42.729Z,65.50
2019-05-02T13:34:14.892Z,64.70
2019-05-02T13:36:48.454Z,64.70
2019-05-02T13:39:32.639Z,64.60
2019-05-02T13:42:01.708Z,64.60
2019-05-02T13:44:34.963Z,64.60
2019-05-02T13:47:04.385Z,64.80
2019-05-02T13:49:32.675Z,64.70
2019-05-02T13:52:02.512Z,64.90
2019-05-02T13:54:32.954Z,64.90
2019-05-02T13:57:03.120Z,64.90
2019-05-02T13:59:33.600Z,64.90
2019-05-02T14:02:02.724Z,64.90
2019-05-02T14:04:32.673Z,64.90
2019-05-02T14:07:03.025Z,64.90
2019-05-02T14:09:39.049Z,64.80
2019-05-02T14:12:14.973Z,64.70
2019-05-02T14:14:43.289Z,64.70
2019-05-02T14:17:11.758Z,64.70
2019-05-02T14:19:41.994Z,64.50
2019-05-02T14:22:10.251Z,64.60
2019-05-02T14:24:38.517Z,64.50
2019-05-02T14:27:07.203Z,64.40
2019-05-02T14:29:36.821Z,64.40
2019-05-02T14:32:20.006Z,64.30
2019-05-02T14:34:44.645Z,64.60
2019-05-02T14:37:12.965Z,64.20
2019-05-02T14:39:43.119Z,64.10
2019-05-02T14:42:15.269Z,64.20
2019-05-02T14:45:04.346Z,64.00
2019-05-02T14:47:18.141Z,64.10
2019-05-02T14:49:42.903Z,64.00
2019-05-02T14:52:12.649Z,63.90
2019-05-02T14:54:43.824Z,63.70
2019-05-02T14:57:17.022Z,63.60
2019-05-02T14:59:43.250Z,63.50
2019-05-02T15:02:13.252Z,63.40
2019-05-02T15:04:44.585Z,63.40
2019-05-02T15:07:12.946Z,63.20
2019-05-02T15:09:41.856Z,63.10
2019-05-02T15:12:15.970Z,63.00
2019-05-02T15:14:40.528Z,63.00
2019-05-02T15:17:08.885Z,63.00
2019-05-02T15:19:37.254Z,62.90
2019-05-02T15:22:05.524Z,62.90
2019-05-02T15:24:37.564Z,62.80
2019-05-02T15:27:12.069Z,62.70
2019-05-02T15:29:33.880Z,62.60
2019-05-02T15:32:19.047Z,62.40
2019-05-02T15:34:57.860Z,62.50
2019-05-02T15:37:27.277Z,62.30
2019-05-02T15:42:25.901Z,62.00
2019-05-02T15:44:57.045Z,61.90
2019-05-02T15:47:24.633Z,61.70
2019-05-02T15:49:53.022Z,61.50
2019-05-02T15:52:24.128Z,61.40
2019-05-02T15:54:59.782Z,61.30
2019-05-02T15:57:24.924Z,61.30
2019-05-02T15:59:53.019Z,61.30
2019-05-02T16:02:26.445Z,61.30
2019-05-02T16:04:57.036Z,61.30
2019-05-02T16:07:23.008Z,61.30
2019-05-02T16:09:51.677Z,61.30
2019-05-02T16:12:22.208Z,61.30
2019-05-02T16:14:52.667Z,61.20
2019-05-02T16:17:25.653Z,61.00
2019-05-02T16:19:58.691Z,60.60
2019-05-02T16:22:24.114Z,60.40
2019-05-02T16:24:53.298Z,60.30
2019-05-02T16:27:25.887Z,60.20
2019-05-02T16:29:58.272Z,60.10
2019-05-02T16:32:25.666Z,59.90
2019-05-02T16:34:55.655Z,59.80
2019-05-02T16:37:24.126Z,59.50
2019-05-02T16:39:52.406Z,59.30
2019-05-02T16:42:22.552Z,59.00
2019-05-02T16:44:52.317Z,58.80
2019-05-02T16:47:21.945Z,58.70
2019-05-02T16:49:53.420Z,58.50
2019-05-02T16:52:22.143Z,58.40
2019-05-02T16:54:52.399Z,58.50
2019-05-02T16:57:22.163Z,58.40
2019-05-02T16:59:56.203Z,58.40
2019-05-02T17:02:21.862Z,58.40
2019-05-02T17:04:54.231Z,58.40
2019-05-02T17:07:22.297Z,58.50
2019-05-02T17:10:08.528Z,58.60
2019-05-02T17:12:37.509Z,58.70
2019-05-02T17:15:26.384Z,58.50
2019-05-02T17:17:54.918Z,58.40
2019-05-02T17:20:23.263Z,58.30
2019-05-02T17:22:57.157Z,58.20
2019-05-02T17:25:21.600Z,58.20
2019-05-02T17:27:53.510Z,58.20
2019-05-02T17:30:20.018Z,58.20
2019-05-02T17:32:48.359Z,58.00
2019-05-02T17:35:16.657Z,58.40
2019-05-02T17:37:48.792Z,58.00
2019-05-02T17:40:16.793Z,58.00
2019-05-02T17:42:45.122Z,57.90
2019-05-02T17:45:13.997Z,57.80
2019-05-02T17:47:42.330Z,57.90
2019-05-02T17:50:18.032Z,57.90
2019-05-02T17:52:49.079Z,57.80
2019-05-02T17:55:17.426Z,57.80
2019-05-02T17:57:45.812Z,57.90
2019-05-02T18:00:16.896Z,58.00
2019-05-02T18:02:46.921Z,58.10
2019-05-02T18:05:15.342Z,58.20
2019-05-02T18:07:43.700Z,58.30
2019-05-02T18:10:16.707Z,58.40
2019-05-02T18:12:42.893Z,58.50
2019-05-02T18:15:12.052Z,58.60
2019-05-02T18:17:42.631Z,58.60
2019-05-02T18:20:12.493Z,58.70
2019-05-02T18:22:45.395Z,58.80
2019-05-02T18:25:11.781Z,58.80
2019-05-02T18:27:42.017Z,58.90
2019-05-02T18:30:10.233Z,59.00
2019-05-02T18:32:38.579Z,59.10
2019-05-02T18:35:06.986Z,59.20
2019-05-02T18:37:37.267Z,59.30
2019-05-02T18:40:06.780Z,59.30
2019-05-02T18:42:35.113Z,59.50
2019-05-02T18:45:08.745Z,59.70
2019-05-02T18:47:37.059Z,59.80
2019-05-02T18:50:26.757Z,59.90
2019-05-02T18:52:55.099Z,60.10
2019-05-02T18:55:25.840Z,60.30
2019-05-02T18:57:57.111Z,60.30
2019-05-02T19:00:27.978Z,60.40
2019-05-02T19:02:56.377Z,60.60
2019-05-02T19:05:26.232Z,60.80
2019-05-02T19:07:56.346Z,61.00
2019-05-02T19:10:24.511Z,61.10
2019-05-02T19:12:56.046Z,61.10
2019-05-02T19:15:22.900Z,61.10
2019-05-02T19:17:52.918Z,61.10
2019-05-02T19:20:24.540Z,61.20
2019-05-02T19:22:56.787Z,61.20
2019-05-02T19:25:22.900Z,61.30
2019-05-02T19:27:57.630Z,61.40
2019-05-02T19:30:27.601Z,61.40
2019-05-02T19:32:57.817Z,61.50
2019-05-02T19:35:25.896Z,62.00
2019-05-02T19:37:55.138Z,62.50
2019-05-02T19:40:28.249Z,63.00
2019-05-02T19:42:57.284Z,63.40
2019-05-02T19:45:24.626Z,63.80
2019-05-02T19:47:54.336Z,64.10
2019-05-02T19:50:38.544Z,64.20
2019-05-02T19:53:04.414Z,64.30
2019-05-02T19:55:32.266Z,64.50
2019-05-02T19:58:02.428Z,64.30
2019-05-02T20:00:31.866Z,64.30
2019-05-02T20:03:01.764Z,64.20
2019-05-02T20:05:32.175Z,64.10
2019-05-02T20:08:02.397Z,64.10
2019-05-02T20:10:32.239Z,64.00
2019-05-02T20:13:02.913Z,63.80
2019-05-02T20:15:32.808Z,63.80
2019-05-02T20:18:04.704Z,64.00
2019-05-02T20:20:58.716Z,64.30
2019-05-02T20:23:31.510Z,64.20
2019-05-02T20:25:57.076Z,64.00
2019-05-02T20:28:25.375Z,64.00
2019-05-02T20:30:53.744Z,64.00
2019-05-02T20:33:22.315Z,63.90
2019-05-02T20:35:52.866Z,63.80
2019-05-02T20:38:21.881Z,63.70
2019-05-02T20:40:52.196Z,63.70
2019-05-02T20:43:22.468Z,63.60
2019-05-02T20:45:52.581Z,63.50
2019-05-02T20:48:22.670Z,63.50
2019-05-02T20:50:51.936Z,63.40
2019-05-02T20:53:30.254Z,63.40
2019-05-02T20:55:52.362Z,63.40
2019-05-02T20:58:22.059Z,63.40
2019-05-02T21:01:05.081Z,63.40
2019-05-02T21:03:20.896Z,63.50
2019-05-02T21:05:56.903Z,63.50
2019-05-02T21:08:32.604Z,63.60
2019-05-02T21:11:02.405Z,63.50
2019-05-02T21:13:32.618Z,63.50
2019-05-02T21:16:01.790Z,63.50
2019-05-02T21:18:32.665Z,63.60
2019-05-02T21:21:00.984Z,63.60
2019-05-02T21:23:41.944Z,63.40
2019-05-02T21:25:59.452Z,63.40
2019-05-02T21:28:27.864Z,63.20
2019-05-02T21:30:56.275Z,63.40
2019-05-02T21:33:38.365Z,63.20
2019-05-02T21:36:06.840Z,63.30
2019-05-02T21:38:35.252Z,63.20
2019-05-02T21:41:05.895Z,63.20
2019-05-02T21:43:34.295Z,63.10
2019-05-02T21:46:02.707Z,63.10
2019-05-02T21:48:32.631Z,63.10
2019-05-02T21:51:05.662Z,63.10
2019-05-02T21:53:35.696Z,63.10
2019-05-02T21:56:08.425Z,63.10
2019-05-02T21:58:36.838Z,63.10
2019-05-02T22:01:09.552Z,63.00
2019-05-02T22:03:38.032Z,62.90
2019-05-02T22:06:06.536Z,62.90
2019-05-02T22:08:34.924Z,62.90
2019-05-02T22:11:03.337Z,62.80
2019-05-02T22:13:31.728Z,62.80
2019-05-02T22:16:02.189Z,62.80
2019-05-02T22:18:31.793Z,62.80
2019-05-02T22:21:01.728Z,62.80
2019-05-02T22:23:31.839Z,62.80
2019-05-02T22:26:01.992Z,62.80
2019-05-02T22:28:32.537Z,62.80
2019-05-02T22:31:00.454Z,62.80
2019-05-02T22:33:28.872Z,62.80
2019-05-02T22:35:57.283Z,62.80
2019-05-02T22:38:36.038Z,62.70
2019-05-02T22:41:04.454Z,62.70
2019-05-02T22:43:32.861Z,62.50
2019-05-02T22:46:02.915Z,62.50
2019-05-02T22:48:31.881Z,62.50
2019-05-02T22:51:00.542Z,62.40
2019-05-02T22:53:28.966Z,62.50
2019-05-02T22:55:57.360Z,62.50
2019-05-02T22:58:25.840Z,62.50
2019-05-02T23:00:54.237Z,62.40
2019-05-02T23:03:24.210Z,62.40
2019-05-02T23:05:52.738Z,62.40
2019-05-02T23:08:21.982Z,62.40
2019-05-02T23:10:51.929Z,62.50
2019-05-02T23:13:22.040Z,62.40
2019-05-02T23:15:52.184Z,62.50
2019-05-02T23:18:22.690Z,62.50
2019-05-02T23:20:52.488Z,62.60
2019-05-02T23:23:21.572Z,62.60
2019-05-02T23:26:08.218Z,62.60
2019-05-02T23:28:42.229Z,62.60
2019-05-02T23:31:11.817Z,62.60
2019-05-02T23:33:58.822Z,62.60
2019-05-02T23:36:32.261Z,62.50
2019-05-02T23:39:01.857Z,62.50
2019-05-02T23:41:32.714Z,62.60
2019-05-02T23:44:02.662Z,62.70
2019-05-02T23:46:30.725Z,62.70
2019-05-02T23:48:59.111Z,62.70
2019-05-02T23:51:27.539Z,62.70
2019-05-02T23:53:55.920Z,62.70
2019-05-02T23:56:24.340Z,62.80
2019-05-02T23:58:52.738Z,62.60
